Time;durP1;ratioP1;P1;durP2;ratioP2;P2;SDS_P1;SDS_P2;PMS_P1;PMS_P2;Temp;Humidity;BMP_temperature;BMP_pressure;BME280_temperature;BME280_humidity;BME280_pressure;Samples;Min_cycle;Max_cycle;Signal;HPM_P1;HPM_P2
2022/02/18 03:21:51;;;;;;;18.92;2.42;;;4.60;99.90;;;;;;4967802;28;20038;-88
2022/02/18 03:24:18;;;;;;;17.17;2.38;;;4.50;99.90;;;;;;4949451;28;20559;-88
2022/02/18 03:26:44;;;;;;;15.52;2.58;;;4.60;99.90;;;;;;4920104;28;20066;-88
2022/02/18 03:29:11;;;;;;;14.38;2.25;;;4.60;99.90;;;;;;4944985;28;20043;-88
2022/02/18 03:31:37;;;;;;;12.95;2.38;;;4.60;99.90;;;;;;4932156;28;20126;-89
2022/02/18 03:34:03;;;;;;;17.88;3.05;;;4.60;99.90;;;;;;4931742;28;20038;-88
2022/02/18 03:36:28;;;;;;;11.48;2.10;;;4.60;99.90;;;;;;4944041;28;20510;-88
2022/02/18 03:38:55;;;;;;;17.60;2.35;;;4.60;99.90;;;;;;4947523;28;20043;-88
2022/02/18 03:41:22;;;;;;;15.00;1.98;;;4.60;99.90;;;;;;4924871;28;20038;-87
2022/02/18 03:43:48;;;;;;;18.55;2.90;;;4.70;99.90;;;;;;4951855;28;20037;-89
2022/02/18 03:46:14;;;;;;;15.18;2.25;;;4.60;99.90;;;;;;4947716;28;20043;-88
2022/02/18 03:48:40;;;;;;;19.90;2.85;;;4.70;99.90;;;;;;4948573;28;20051;-89
2022/02/18 03:51:06;;;;;;;8.88;1.92;;;4.70;99.90;;;;;;4943525;28;20050;-88
2022/02/18 03:53:32;;;;;;;17.48;2.45;;;4.60;99.90;;;;;;4943517;28;20070;-89
2022/02/18 03:56:01;;;;;;;18.77;2.13;;;4.60;99.90;;;;;;4921009;28;20177;-89
2022/02/18 03:58:27;;;;;;;23.52;2.67;;;4.70;99.90;;;;;;4930623;28;20046;-90
2022/02/18 04:00:53;;;;;;;18.83;3.00;;;4.70;99.90;;;;;;4944235;28;20658;-90
2022/02/18 04:03:20;;;;;;;14.77;1.80;;;4.70;99.90;;;;;;4949506;28;20045;-90
2022/02/18 04:05:47;;;;;;;18.00;2.17;;;4.70;99.90;;;;;;4924895;28;20520;-89
2022/02/18 04:08:12;;;;;;;20.08;2.30;;;4.70;99.90;;;;;;4930966;28;20482;-89
2022/02/18 04:10:38;;;;;;;14.77;2.33;;;4.80;99.90;;;;;;4926263;28;20101;-88
2022/02/18 04:13:07;;;;;;;18.00;2.63;;;4.70;99.90;;;;;;4946454;28;20482;-89
2022/02/18 04:15:35;;;;;;;18.80;2.20;;;4.80;99.90;;;;;;4941407;28;20101;-88
2022/02/18 04:18:09;;;;;;;14.70;2.40;;;4.80;99.90;;;;;;4936874;28;20445;-89
2022/02/18 04:20:35;;;;;;;11.57;2.38;;;4.80;99.90;;;;;;4960511;28;20074;-89
2022/02/18 04:23:01;;;;;;;22.38;3.08;;;4.80;99.90;;;;;;4929991;28;20035;-88
2022/02/18 04:25:27;;;;;;;20.77;3.65;;;4.80;99.90;;;;;;4943354;28;20133;-90
2022/02/18 04:28:01;;;;;;;13.52;2.85;;;4.80;99.90;;;;;;4929921;28;20055;-89
2022/02/18 04:30:27;;;;;;;25.85;2.53;;;4.80;99.90;;;;;;4940363;28;20129;-89
2022/02/18 04:32:53;;;;;;;14.98;2.83;;;4.80;99.90;;;;;;4959985;28;20042;-89
2022/02/18 04:35:20;;;;;;;17.52;3.65;;;4.80;99.90;;;;;;4923214;28;20046;-88
2022/02/18 04:37:46;;;;;;;14.07;2.92;;;4.90;99.90;;;;;;4950727;28;20038;-88
2022/02/18 04:40:14;;;;;;;18.80;3.42;;;4.90;99.90;;;;;;4959644;28;20039;-89
2022/02/18 04:42:40;;;;;;;23.10;3.33;;;4.90;99.90;;;;;;4930435;28;20050;-90
2022/02/18 04:45:06;;;;;;;23.50;3.35;;;4.90;99.90;;;;;;4934117;28;20042;-90
2022/02/18 04:47:32;;;;;;;26.15;3.65;;;5.00;99.90;;;;;;4945963;28;20082;-89
2022/02/18 04:49:58;;;;;;;27.80;4.07;;;5.00;99.90;;;;;;4931027;28;20039;-89
2022/02/18 04:52:23;;;;;;;24.90;4.07;;;5.00;99.90;;;;;;4930051;28;20046;-88
2022/02/18 04:54:49;;;;;;;29.35;5.05;;;5.00;99.90;;;;;;4967638;28;20141;-89
2022/02/18 04:57:15;;;;;;;21.40;4.43;;;5.10;99.90;;;;;;4946380;28;20483;-89
2022/02/18 04:59:41;;;;;;;25.60;5.07;;;5.10;99.90;;;;;;4932229;28;20035;-89
2022/02/18 05:02:07;;;;;;;26.75;4.82;;;5.10;99.90;;;;;;4946483;28;20126;-89
2022/02/18 05:04:32;;;;;;;27.73;4.63;;;5.20;99.90;;;;;;4934614;28;20047;-87
2022/02/18 05:06:59;;;;;;;29.75;5.57;;;5.20;99.90;;;;;;4932888;28;20042;-89
2022/02/18 05:09:25;;;;;;;30.35;4.72;;;5.20;99.90;;;;;;4933447;28;20442;-88
2022/02/18 05:11:51;;;;;;;33.40;5.57;;;5.30;99.90;;;;;;4930681;28;20046;-89
2022/02/18 05:14:17;;;;;;;36.40;5.80;;;5.30;99.90;;;;;;4930088;28;20099;-89
2022/02/18 05:16:44;;;;;;;25.05;5.18;;;5.40;99.90;;;;;;4940782;28;20049;-89
2022/02/18 05:19:10;;;;;;;33.55;5.90;;;5.40;99.90;;;;;;4931829;28;20054;-88
2022/02/18 05:21:37;;;;;;;33.72;5.68;;;5.40;99.90;;;;;;4930816;28;20501;-89
2022/02/18 05:24:04;;;;;;;33.83;5.68;;;5.40;99.90;;;;;;4913390;28;20061;-88
2022/02/18 05:26:30;;;;;;;31.38;5.75;;;5.50;99.90;;;;;;4948868;28;20117;-88
2022/02/18 05:28:56;;;;;;;32.72;6.10;;;5.40;99.90;;;;;;4931554;28;20051;-89
2022/02/18 05:31:22;;;;;;;35.45;5.78;;;5.40;99.90;;;;;;4928585;28;20042;-88
2022/02/18 05:33:48;;;;;;;41.70;6.55;;;5.40;99.90;;;;;;4933976;28;20076;-87
2022/02/18 05:36:17;;;;;;;32.35;6.10;;;5.40;99.90;;;;;;4948672;28;20433;-89
2022/02/18 05:38:46;;;;;;;48.00;7.68;;;5.50;99.90;;;;;;4947157;28;20117;-89
2022/02/18 05:41:21;;;;;;;42.53;5.85;;;5.50;99.90;;;;;;4944723;28;20382;-88
2022/02/18 05:43:59;;;;;;;40.05;7.40;;;5.40;99.90;;;;;;4924058;28;20031;-89
2022/02/18 05:47:03;;;;;;;42.75;6.35;;;5.50;99.90;;;;;;4943757;28;20055;-89
2022/02/18 05:49:31;;;;;;;36.97;5.95;;;5.50;99.90;;;;;;4943455;28;20051;-89
2022/02/18 05:52:03;;;;;;;44.67;7.57;;;5.50;99.90;;;;;;4941934;28;20039;-90
2022/02/18 07:33:19;;;;;;;53.17;12.40;;;5.80;99.90;;;;;;4959582;28;20046;-90
2022/02/18 07:35:45;;;;;;;57.22;12.38;;;5.80;99.90;;;;;;4921831;28;20035;-87
2022/02/18 07:38:11;;;;;;;62.65;12.13;;;5.80;99.90;;;;;;4925814;28;20090;-88
2022/02/18 07:40:37;;;;;;;47.05;11.15;;;5.80;99.90;;;;;;4958535;28;20074;-88
2022/02/18 07:43:03;;;;;;;53.22;12.15;;;5.90;99.90;;;;;;4926283;28;20038;-89
2022/02/18 07:45:29;;;;;;;53.75;11.00;;;5.90;99.90;;;;;;4926510;28;20069;-88
2022/02/18 07:47:57;;;;;;;55.92;11.70;;;5.90;99.90;;;;;;4955431;28;20039;-88
2022/02/18 07:50:24;;;;;;;52.47;12.00;;;5.90;99.90;;;;;;4923846;28;20169;-89
2022/02/18 07:52:50;;;;;;;53.08;10.75;;;6.00;99.90;;;;;;4938230;28;20097;-89
2022/02/18 07:55:16;;;;;;;56.70;10.00;;;6.00;99.90;;;;;;4935336;28;20467;-88
2022/02/18 07:57:42;;;;;;;49.90;9.75;;;6.00;99.90;;;;;;4939418;28;20128;-88
2022/02/18 08:00:08;;;;;;;53.05;9.90;;;6.00;99.90;;;;;;4954452;28;20075;-89
2022/02/18 08:02:34;;;;;;;55.30;9.50;;;6.00;99.90;;;;;;4911236;28;20054;-88
2022/02/18 08:05:00;;;;;;;53.28;9.50;;;6.10;99.90;;;;;;4937114;28;20034;-88
2022/02/18 08:07:26;;;;;;;57.13;10.13;;;6.10;99.90;;;;;;4925133;28;20037;-87
2022/02/18 08:09:52;;;;;;;52.85;9.27;;;6.10;99.90;;;;;;4910545;28;20039;-88
2022/02/18 08:12:17;;;;;;;47.75;8.88;;;6.10;99.90;;;;;;4954592;28;20106;-89
2022/02/18 08:14:43;;;;;;;49.85;8.65;;;6.10;99.90;;;;;;4920215;28;20074;-88
2022/02/18 08:17:09;;;;;;;57.00;8.00;;;6.20;99.90;;;;;;4927374;28;21028;-88
2022/02/18 08:19:35;;;;;;;53.97;8.35;;;6.20;99.90;;;;;;4938931;28;20327;-87
2022/02/18 08:22:03;;;;;;;61.10;8.48;;;6.20;99.90;;;;;;4925423;28;20152;-87
2022/02/18 08:24:33;;;;;;;51.67;8.30;;;6.30;99.90;;;;;;4925913;28;20043;-88
2022/02/18 08:27:01;;;;;;;66.00;8.85;;;6.30;99.90;;;;;;4960141;28;20104;-87
2022/02/18 08:29:27;;;;;;;55.25;9.00;;;6.20;99.90;;;;;;4937163;28;20050;-88
2022/02/18 08:31:57;;;;;;;59.17;9.07;;;6.30;99.90;;;;;;4929205;28;20047;-87
2022/02/18 08:34:23;;;;;;;51.08;9.15;;;6.30;99.90;;;;;;4953906;28;20042;-86
2022/02/18 08:36:49;;;;;;;52.80;9.13;;;6.30;99.90;;;;;;4921608;28;20514;-87
2022/02/18 08:39:16;;;;;;;57.75;9.70;;;6.30;99.90;;;;;;4961767;28;20112;-86
2022/02/18 08:41:48;;;;;;;58.35;10.93;;;6.30;99.90;;;;;;4947242;28;20031;-89
2022/02/18 08:44:14;;;;;;;54.55;11.60;;;6.40;99.90;;;;;;4950055;28;20130;-86
2022/02/18 08:47:00;;;;;;;46.55;11.30;;;6.40;99.90;;;;;;4932027;28;20071;-86
2022/02/18 08:49:40;;;;;;;69.57;12.63;;;6.40;99.90;;;;;;4939851;28;20502;-89
2022/02/18 08:52:06;;;;;;;52.60;13.10;;;6.40;99.90;;;;;;4940859;28;23351;-84
2022/02/18 08:54:32;;;;;;;57.25;14.82;;;6.40;99.90;;;;;;4941101;28;20058;-85
2022/02/18 08:57:06;;;;;;;49.38;15.73;;;6.40;99.90;;;;;;4943521;28;20504;-85
2022/02/18 08:59:32;;;;;;;58.42;16.85;;;6.50;99.90;;;;;;4947610;28;20375;-87
2022/02/18 09:02:09;;;;;;;;;;;;;;;;;;;;;
2022/02/18 09:04:35;;;;;;;56.17;17.25;;;6.50;99.90;;;;;;4937747;28;20699;-86
2022/02/18 09:07:02;;;;;;;59.25;18.17;;;6.50;99.90;;;;;;4958399;28;20460;-87
2022/02/18 09:09:37;;;;;;;56.85;17.92;;;6.50;99.90;;;;;;4944157;28;20043;-86
2022/02/18 09:12:06;;;;;;;67.88;18.42;;;6.50;99.90;;;;;;4939496;28;20050;-86
2022/02/18 09:14:41;;;;;;;44.67;18.75;;;6.50;99.90;;;;;;4940531;28;20042;-86
2022/02/18 09:17:10;;;;;;;56.60;20.05;;;6.50;99.90;;;;;;4937254;28;20248;-86
2022/02/18 09:19:44;;;;;;;57.20;19.98;;;6.60;99.90;;;;;;4922387;28;20051;-86
2022/02/18 09:22:34;;;;;;;52.92;18.98;;;6.60;99.90;;;;;;4945648;28;20711;-88
2022/02/18 09:25:20;;;;;;;61.83;21.88;;;6.60;99.90;;;;;;4954990;28;20135;-88
2022/02/18 09:28:18;;;;;;;61.15;20.92;;;6.70;99.90;;;;;;4961547;28;20046;-87
2022/02/18 09:31:04;;;;;;;47.15;20.83;;;6.80;99.90;;;;;;4945344;28;20124;-87
2022/02/18 09:34:00;;;;;;;45.95;19.42;;;6.80;99.90;;;;;;4924539;28;20046;-87
2022/02/18 14:20:10;;;;;;;15.43;2.53;;;8.40;99.90;;;;;;4941148;28;20573;-86
2022/02/18 14:27:11;;;;;;;;;;;8.30;99.90;;;;;;4955706;28;20075;-86
2022/02/18 14:29:49;;;;;;;13.95;2.40;;;8.30;99.90;;;;;;4951061;28;19926;-87
2022/02/18 14:32:25;;;;;;;20.73;2.80;;;8.30;99.90;;;;;;4935940;29;20061;-87
2022/02/18 14:35:07;;;;;;;15.82;2.40;;;8.30;99.90;;;;;;4944853;28;20038;-88
2022/02/18 14:37:37;;;;;;;15.13;2.23;;;8.40;99.90;;;;;;4935728;29;20257;-87
2022/02/18 14:40:23;;;;;;;13.00;2.00;;;8.40;99.90;;;;;;4934415;29;20690;-86
2022/02/18 14:42:49;;;;;;;12.63;2.15;;;8.40;99.90;;;;;;4934317;29;20059;-84
2022/02/18 14:45:28;;;;;;;13.48;2.45;;;8.40;99.90;;;;;;4913336;29;20502;-86
2022/02/18 14:47:57;;;;;;;22.88;2.80;;;8.50;99.90;;;;;;4930769;29;20126;-87
2022/02/18 14:50:32;;;;;;;18.90;2.67;;;8.60;99.90;;;;;;4921741;29;20048;-86
2022/02/18 14:53:05;;;;;;;16.98;2.85;;;8.60;99.90;;;;;;4934084;29;20754;-84
2022/02/18 14:55:32;;;;;;;13.07;2.53;;;8.70;99.90;;;;;;4930737;29;20268;-87
2022/02/18 14:58:04;;;;;;;10.95;1.92;;;8.90;99.90;;;;;;4919970;29;20106;-88
2022/02/18 15:00:32;;;;;;;19.45;2.80;;;9.10;99.90;;;;;;4918785;29;20047;-86
2022/02/18 15:03:03;;;;;;;21.77;3.05;;;9.10;99.90;;;;;;4937192;28;20031;-89
2022/02/18 15:05:40;;;;;;;15.77;2.40;;;9.10;99.90;;;;;;4932125;28;20043;-88
2022/02/18 15:08:10;;;;;;;21.00;3.13;;;9.10;99.90;;;;;;4934459;28;20189;-89
2022/02/18 15:10:37;;;;;;;19.70;3.22;;;9.10;99.90;;;;;;4947807;28;20050;-88
2022/02/18 15:13:04;;;;;;;19.63;3.22;;;9.10;99.90;;;;;;4932166;29;20051;-90
2022/02/18 15:15:36;;;;;;;26.88;3.78;;;9.10;99.90;;;;;;4932953;28;20043;-89
2022/02/18 15:18:03;;;;;;;23.77;3.65;;;9.10;99.90;;;;;;4946895;28;20047;-87
2022/02/18 15:20:34;;;;;;;22.90;3.30;;;9.10;99.90;;;;;;4929679;28;20075;-88
2022/02/18 15:23:05;;;;;;;25.90;3.58;;;9.20;99.90;;;;;;4931765;29;20047;-88
2022/02/18 15:25:33;;;;;;;30.67;4.50;;;9.00;99.90;;;;;;4931463;28;20031;-91
2022/02/18 15:28:00;;;;;;;26.30;3.30;;;8.80;99.90;;;;;;4918102;29;20047;-88
2022/02/18 15:36:12;;;;;;;27.08;3.50;;;8.50;99.90;;;;;;4950855;28;20054;-89
2022/02/18 15:38:41;;;;;;;35.20;4.65;;;8.60;99.90;;;;;;4921669;29;20054;-87
2022/02/18 15:44:02;;;;;;;26.08;3.65;;;8.60;99.90;;;;;;4952488;28;20481;-88
2022/02/18 15:46:30;;;;;;;25.70;3.72;;;8.60;99.90;;;;;;4934018;28;20578;-88
2022/02/18 15:48:57;;;;;;;29.55;4.03;;;8.60;99.90;;;;;;4917131;28;20035;-89
2022/02/18 15:51:28;;;;;;;22.73;3.33;;;8.70;99.90;;;;;;4917420;29;20078;-90
2022/02/18 15:54:02;;;;;;;27.50;3.67;;;8.80;99.90;;;;;;4917006;29;20101;-89
2022/02/18 15:56:28;;;;;;;27.38;3.58;;;8.90;99.90;;;;;;4946492;28;20067;-90
2022/02/18 15:58:57;;;;;;;23.33;4.32;;;9.00;99.90;;;;;;4931900;29;20105;-88
2022/02/18 16:01:35;;;;;;;19.58;3.30;;;9.10;99.90;;;;;;4943461;28;20043;-89
2022/02/18 16:04:16;;;;;;;20.90;3.40;;;9.10;99.90;;;;;;4945489;28;20126;-86
2022/02/18 16:06:52;;;;;;;26.15;4.13;;;9.20;99.90;;;;;;4915568;29;20581;-88
2022/02/18 16:09:49;;;;;;;22.35;3.83;;;9.30;99.90;;;;;;4938680;28;20039;-91
2022/02/18 16:12:15;;;;;;;28.02;4.75;;;9.40;99.90;;;;;;4938647;29;20074;-89
2022/02/18 16:14:50;;;;;;;27.57;4.50;;;9.40;99.90;;;;;;4916491;29;20067;-88
2022/02/18 16:17:16;;;;;;;32.42;4.72;;;9.40;99.90;;;;;;4928552;29;20055;-89
2022/02/18 16:19:55;;;;;;;;;;;;;;;;;;;;;
2022/02/18 16:22:32;;;;;;;24.67;3.75;;;9.30;99.90;;;;;;4928475;28;20039;-88
2022/02/18 16:25:03;;;;;;;30.45;4.22;;;9.30;99.90;;;;;;4911731;29;20042;-89
2022/02/18 16:27:48;;;;;;;31.35;5.00;;;9.30;99.90;;;;;;4923565;28;20047;-88
2022/02/18 16:30:21;;;;;;;20.85;3.92;;;9.30;99.90;;;;;;4911228;28;20066;-88
2022/02/18 16:32:53;;;;;;;21.98;4.22;;;9.30;99.90;;;;;;4900582;28;20047;-87
2022/02/18 16:35:26;;;;;;;29.73;5.07;;;9.30;99.90;;;;;;4920874;29;20055;-89
2022/02/18 16:38:41;;;;;;;26.13;4.28;;;9.20;99.90;;;;;;4908226;29;20039;-89
2022/02/18 16:41:25;;;;;;;24.08;4.47;;;9.10;99.90;;;;;;4942352;28;20110;-89
2022/02/18 16:44:16;;;;;;;28.55;5.28;;;9.10;99.90;;;;;;4928106;29;20043;-89
2022/02/18 16:47:12;;;;;;;32.80;5.18;;;9.10;99.90;;;;;;4934321;28;20475;-89
2022/02/18 16:49:43;;;;;;;31.90;5.13;;;9.10;99.90;;;;;;4921920;29;20130;-88
2022/02/18 16:52:12;;;;;;;32.92;4.65;;;9.00;99.90;;;;;;4910396;28;20136;-88
2022/02/18 16:55:10;;;;;;;32.25;4.97;;;9.00;99.90;;;;;;4925124;29;20055;-89
2022/02/18 16:57:48;;;;;;;34.38;5.63;;;8.80;99.90;;;;;;4928466;29;20073;-89
2022/02/18 17:00:17;;;;;;;40.38;6.70;;;8.80;99.90;;;;;;4929657;28;20094;-88
2022/02/18 17:02:55;;;;;;;29.48;5.47;;;8.80;99.90;;;;;;4925252;29;20079;-89
2022/02/18 17:09:09;;;;;;;31.90;5.35;;;8.30;99.90;;;;;;4934466;29;20110;-88
2022/02/18 17:11:49;;;;;;;;;;;8.20;99.90;;;;;;4929864;28;20055;-88
2022/02/18 17:14:37;;;;;;;;;;;;;;;;;;;;;
2022/02/18 17:17:36;;;;;;;31.80;4.20;;;7.70;99.90;;;;;;4962655;28;20044;-89
2022/02/18 17:20:27;;;;;;;41.05;5.80;;;7.60;99.90;;;;;;4931968;28;20721;-88
2022/02/18 17:23:18;;;;;;;28.42;5.55;;;7.60;99.90;;;;;;4934081;29;20039;-88
2022/02/18 17:26:20;;;;;;;26.60;3.95;;;7.70;99.90;;;;;;4930203;28;20046;-89
2022/02/18 17:29:01;;;;;;;23.60;3.70;;;8.00;99.90;;;;;;4945276;29;20046;-88
2022/02/18 17:31:30;;;;;;;25.50;4.97;;;8.10;99.90;;;;;;4927539;28;20047;-89
2022/02/18 17:34:01;;;;;;;27.58;5.00;;;8.30;99.90;;;;;;4919797;29;20894;-87
2022/02/18 17:36:33;;;;;;;22.42;3.72;;;8.40;99.90;;;;;;4919430;29;20031;-86
2022/02/18 17:39:05;;;;;;;20.02;3.88;;;8.30;99.90;;;;;;4929594;29;20073;-89
2022/02/18 17:41:31;;;;;;;20.60;3.88;;;8.30;99.90;;;;;;4931030;28;20043;-91
2022/02/18 17:43:59;;;;;;;20.70;3.03;;;8.30;99.90;;;;;;4932226;29;20042;-90
2022/02/18 17:46:38;;;;;;;24.73;3.92;;;8.20;99.90;;;;;;4932175;29;20036;-88
2022/02/18 17:52:21;;;;;;;26.98;3.75;;;8.10;99.90;;;;;;4916967;29;20047;-88
2022/02/18 17:54:58;;;;;;;21.63;4.05;;;8.00;99.90;;;;;;4932173;29;20038;-85
2022/02/18 17:57:36;;;;;;;16.85;2.53;;;8.00;99.90;;;;;;4936656;29;20047;-89
2022/02/18 18:00:12;;;;;;;19.40;3.03;;;7.90;99.90;;;;;;4931808;28;20050;-89
2022/02/18 18:03:21;;;;;;;19.58;3.17;;;7.70;99.90;;;;;;4948405;28;20566;-86
2022/02/18 18:42:16;;;;;;;17.38;2.70;;;6.00;99.90;;;;;;4966375;28;20133;-88
2022/02/18 18:44:43;;;;;;;14.15;2.15;;;5.90;99.90;;;;;;4919674;28;20050;-86
2022/02/18 18:47:09;;;;;;;15.50;2.35;;;5.80;99.90;;;;;;4949979;28;20038;-86
2022/02/18 18:49:35;;;;;;;11.25;1.80;;;5.80;99.90;;;;;;4950479;28;20503;-89
2022/02/18 18:52:10;;;;;;;14.10;2.20;;;5.70;99.90;;;;;;4918924;28;20533;-90
2022/02/18 18:54:35;;;;;;;13.63;2.30;;;5.70;99.90;;;;;;4967903;28;20049;-86
2022/02/18 18:57:01;;;;;;;12.63;2.15;;;5.70;99.90;;;;;;4922340;28;20038;-87
2022/02/18 18:59:27;;;;;;;11.90;1.50;;;5.70;99.90;;;;;;4926054;28;20035;-88
2022/02/18 19:01:53;;;;;;;11.73;2.00;;;5.70;99.90;;;;;;4938253;28;20121;-88
2022/02/18 19:04:20;;;;;;;14.25;1.90;;;5.80;99.90;;;;;;4918611;28;20414;-89
2022/02/18 19:06:47;;;;;;;12.75;2.25;;;5.70;99.90;;;;;;4924820;28;20062;-90
2022/02/18 19:09:16;;;;;;;16.73;2.22;;;5.70;99.90;;;;;;4937618;28;20038;-89
2022/02/18 19:11:42;;;;;;;10.57;1.90;;;5.70;99.90;;;;;;4923908;28;20046;-89
2022/02/18 19:14:28;;;;;;;16.35;2.75;;;5.70;99.90;;;;;;4939960;28;20552;-90
2022/02/18 19:17:07;;;;;;;19.75;2.45;;;5.70;99.90;;;;;;4948047;28;20058;-85
2022/02/18 19:19:43;;;;;;;20.35;2.60;;;5.60;99.90;;;;;;4953037;28;20521;-87
2022/02/18 19:22:10;;;;;;;16.50;2.13;;;5.30;99.90;;;;;;4935900;28;20070;-88
2022/02/18 19:24:42;;;;;;;20.33;3.08;;;5.10;99.90;;;;;;4932821;28;20054;-88
2022/02/18 19:27:11;;;;;;;14.68;2.38;;;5.10;99.90;;;;;;4970054;28;20580;-88
2022/02/18 19:29:37;;;;;;;12.88;2.17;;;5.00;99.90;;;;;;4936516;28;20502;-89
2022/02/18 19:32:09;;;;;;;15.18;3.65;;;5.00;99.90;;;;;;4937334;28;20094;-89
2022/02/18 19:34:35;;;;;;;8.95;1.80;;;5.10;99.90;;;;;;4965978;28;20076;-89
2022/02/18 19:37:04;;;;;;;13.13;1.88;;;5.10;99.90;;;;;;4950073;28;20077;-88
2022/02/18 19:39:33;;;;;;;19.77;2.50;;;5.10;99.90;;;;;;4922024;28;20039;-90
2022/02/18 19:42:05;;;;;;;19.23;2.55;;;5.20;99.90;;;;;;4954754;28;20066;-89
2022/02/18 19:44:31;;;;;;;19.55;3.42;;;5.10;99.90;;;;;;4944706;28;20538;-88
2022/02/18 19:46:59;;;;;;;13.55;2.65;;;5.10;99.90;;;;;;4932274;28;20053;-88
2022/02/18 19:49:33;;;;;;;19.33;2.95;;;5.00;99.90;;;;;;4942795;28;20042;-89
2022/02/18 19:52:17;;;;;;;19.02;3.08;;;5.00;99.90;;;;;;4962149;28;20390;-90
2022/02/18 19:54:48;;;;;;;17.15;2.40;;;5.10;99.90;;;;;;4928654;28;20398;-87
2022/02/18 19:57:24;;;;;;;14.70;2.25;;;5.20;99.90;;;;;;4932034;28;20526;-90
2022/02/18 20:00:22;;;;;;;17.70;2.55;;;5.20;99.90;;;;;;4956294;28;20039;-88
2022/02/18 20:02:50;;;;;;;26.83;3.22;;;5.20;99.90;;;;;;4950729;28;20053;-90
2022/02/18 20:05:16;;;;;;;23.65;2.30;;;5.30;99.90;;;;;;4926956;28;20054;-88
2022/02/18 20:07:53;;;;;;;24.38;3.17;;;5.10;99.90;;;;;;4952040;28;20502;-89
2022/02/18 20:10:19;;;;;;;14.73;2.67;;;5.00;99.90;;;;;;4918332;28;20044;-87
2022/02/18 20:12:45;;;;;;;22.67;3.35;;;4.80;99.90;;;;;;4948160;28;21338;-93
2022/02/18 20:15:12;;;;;;;23.30;3.45;;;4.80;99.90;;;;;;4933145;28;20039;-91
2022/02/18 20:17:39;;;;;;;28.02;3.60;;;4.70;99.90;;;;;;4947903;28;20043;-89
2022/02/18 20:20:06;;;;;;;14.30;2.78;;;4.80;99.90;;;;;;4950337;28;20182;-87
2022/02/18 20:22:32;;;;;;;17.27;2.40;;;4.80;99.90;;;;;;4962080;28;20037;-89
2022/02/18 20:24:58;;;;;;;21.05;2.95;;;4.80;99.90;;;;;;4961153;28;20137;-90
2022/02/18 20:27:24;;;;;;;19.08;2.90;;;4.90;99.90;;;;;;4952921;28;20043;-88
2022/02/18 20:30:03;;;;;;;;;;;;;;;;;;;;;
2022/02/18 20:32:35;;;;;;;15.00;2.67;;;5.10;99.90;;;;;;4963915;28;20177;-89
2022/02/18 20:35:27;;;;;;;15.95;2.53;;;5.10;99.90;;;;;;4932253;28;20046;-90
2022/02/18 20:37:56;;;;;;;15.43;3.15;;;5.10;99.90;;;;;;4941919;28;20047;-90
2022/02/18 20:44:05;;;;;;;29.77;5.18;;;5.30;99.90;;;;;;4953457;28;20050;-89
2022/02/18 20:46:46;;;;;;;13.40;2.58;;;5.30;99.90;;;;;;4946396;28;20391;-88
2022/02/18 20:49:44;;;;;;;22.92;3.40;;;5.50;99.90;;;;;;4948092;28;20564;-89
2022/02/18 20:52:25;;;;;;;19.02;2.75;;;5.50;99.90;;;;;;4950691;28;20055;-89
2022/02/18 20:55:05;;;;;;;;;;;;;;;;;;;;;
2022/02/18 20:57:41;;;;;;;19.77;3.03;;;5.80;99.90;;;;;;4961212;28;20035;-90
2022/02/18 21:00:29;;;;;;;12.48;2.60;;;5.90;99.90;;;;;;4943221;28;20030;-90
2022/02/18 21:03:14;;;;;;;27.92;3.42;;;6.00;99.90;;;;;;4946772;28;20074;-91
2022/02/18 21:05:59;;;;;;;20.75;3.58;;;6.00;99.90;;;;;;4948062;28;20050;-90
2022/02/18 21:08:31;;;;;;;15.93;3.55;;;6.10;99.90;;;;;;4932448;28;20082;-89
2022/02/18 21:11:00;;;;;;;22.45;3.28;;;6.10;99.90;;;;;;4946195;28;20116;-88
2022/02/18 21:13:29;;;;;;;22.70;3.03;;;6.10;99.90;;;;;;4962981;28;20512;-89
2022/02/18 21:16:18;;;;;;;17.27;3.30;;;6.10;99.90;;;;;;4932389;28;20532;-90
2022/02/18 21:18:48;;;;;;;25.52;2.45;;;6.10;99.90;;;;;;4930332;28;20046;-87
2022/02/18 21:21:14;;;;;;;18.67;2.88;;;6.10;99.90;;;;;;4950958;28;20389;-90
2022/02/18 21:23:43;;;;;;;21.95;3.45;;;6.10;99.90;;;;;;4946201;28;20388;-88
2022/02/18 21:26:30;;;;;;;28.17;3.90;;;6.10;99.90;;;;;;4957600;28;20050;-88
2022/02/18 21:29:03;;;;;;;29.15;3.33;;;6.20;99.90;;;;;;4951585;28;20117;-88
2022/02/18 21:31:40;;;;;;;17.60;3.05;;;6.10;99.90;;;;;;4947869;28;20501;-89
2022/02/18 21:34:56;;;;;;;25.90;4.07;;;6.20;99.90;;;;;;4931401;28;20038;-91
2022/02/18 21:41:37;;;;;;;14.75;2.50;;;6.20;99.90;;;;;;4961269;28;20049;-89
2022/02/18 21:44:09;;;;;;;25.25;3.17;;;6.20;99.90;;;;;;4943258;28;20145;-87
2022/02/18 21:46:38;;;;;;;16.95;2.90;;;6.20;99.90;;;;;;4928662;28;20038;-87
2022/02/18 21:49:08;;;;;;;21.20;2.80;;;6.20;99.90;;;;;;4947188;28;20097;-87
2022/02/18 21:51:34;;;;;;;18.27;3.05;;;6.20;99.90;;;;;;4944539;28;20134;-89
2022/02/18 21:54:12;;;;;;;13.32;2.90;;;6.30;99.90;;;;;;4943426;28;20641;-91
2022/02/18 21:57:03;;;;;;;14.05;2.55;;;6.20;99.90;;;;;;4952391;28;20051;-88
2022/02/18 21:59:29;;;;;;;18.08;2.47;;;6.30;99.90;;;;;;4936864;28;20347;-91
2022/02/18 22:02:06;;;;;;;20.88;3.28;;;6.30;99.90;;;;;;4950824;28;20043;-89
2022/02/18 22:04:41;;;;;;;15.80;2.70;;;6.30;99.90;;;;;;4937461;28;20042;-91
2022/02/18 22:07:09;;;;;;;18.48;2.78;;;6.30;99.90;;;;;;4933601;28;20398;-88
2022/02/18 22:09:38;;;;;;;16.45;2.72;;;6.30;99.90;;;;;;4930833;28;20059;-92
2022/02/18 22:12:16;;;;;;;20.45;2.78;;;6.20;99.90;;;;;;4932335;28;20087;-89
2022/02/18 22:14:43;;;;;;;16.20;2.58;;;6.30;99.90;;;;;;4944984;28;20042;-91
2022/02/18 22:17:09;;;;;;;16.73;2.90;;;6.40;99.90;;;;;;4942913;28;20051;-90
2022/02/18 22:19:36;;;;;;;18.80;2.83;;;6.40;99.90;;;;;;4935098;28;20568;-91
2022/02/18 22:22:03;;;;;;;16.38;2.95;;;6.40;99.90;;;;;;4933014;28;20102;-89
2022/02/18 22:24:33;;;;;;;16.60;3.58;;;6.40;99.90;;;;;;4935095;28;20386;-90
2022/02/18 22:30:53;;;;;;;13.02;2.40;;;6.40;99.90;;;;;;4892124;29;20072;-90
2022/02/18 22:33:19;;;;;;;21.73;3.08;;;6.40;99.90;;;;;;4874496;29;20056;-91
2022/02/18 22:36:00;;;;;;;19.23;2.70;;;6.40;99.90;;;;;;4857416;29;20055;-89
2022/02/18 22:38:49;;;;;;;15.15;2.47;;;6.40;99.90;;;;;;4853577;29;20063;-90
2022/02/18 22:41:18;;;;;;;9.15;1.80;;;6.40;99.90;;;;;;4871791;29;20055;-90
2022/02/18 22:43:57;;;;;;;13.93;2.35;;;6.30;99.90;;;;;;4892184;29;20047;-89
2022/02/18 22:46:28;;;;;;;18.52;2.92;;;6.30;99.90;;;;;;4907174;29;20622;-90
2022/02/18 22:49:04;;;;;;;21.70;3.25;;;6.30;99.90;;;;;;4893516;29;20040;-87
2022/02/18 22:51:42;;;;;;;19.10;2.80;;;6.30;99.90;;;;;;4894787;29;20071;-88
2022/02/18 22:54:14;;;;;;;19.17;3.58;;;6.30;99.90;;;;;;4891994;29;20051;-88
2022/02/18 22:56:40;;;;;;;24.45;3.33;;;6.30;99.90;;;;;;4892988;29;20048;-89
2022/02/18 22:59:29;;;;;;;24.52;3.60;;;6.30;99.90;;;;;;4895353;29;20044;-89
2022/02/18 23:02:07;;;;;;;18.42;3.28;;;6.20;99.90;;;;;;4892175;29;20554;-88
2022/02/18 23:04:33;;;;;;;16.42;2.97;;;6.20;99.90;;;;;;4897616;29;20036;-89
2022/02/18 23:06:59;;;;;;;18.65;2.30;;;6.20;99.90;;;;;;4892924;29;20454;-91
2022/02/18 23:09:25;;;;;;;12.07;2.42;;;6.30;99.90;;;;;;4863124;29;20427;-90
2022/02/18 23:11:57;;;;;;;23.80;4.10;;;6.30;99.90;;;;;;4893518;29;20098;-89
2022/02/18 23:14:34;;;;;;;19.23;3.03;;;6.20;99.90;;;;;;4892727;29;20123;-88
2022/02/18 23:17:18;;;;;;;18.02;3.17;;;6.20;99.90;;;;;;4907771;29;20051;-88
2022/02/18 23:19:47;;;;;;;25.42;2.83;;;6.20;99.90;;;;;;4910291;29;20126;-87
2022/02/18 23:22:12;;;;;;;15.68;2.78;;;6.20;99.90;;;;;;4893028;29;20094;-89
2022/02/18 23:24:39;;;;;;;21.40;2.40;;;6.20;99.90;;;;;;4909105;29;20511;-90
2022/02/18 23:27:05;;;;;;;16.92;2.65;;;6.20;99.90;;;;;;4931638;28;20047;-87
2022/02/18 23:29:36;;;;;;;23.13;2.85;;;6.30;99.90;;;;;;4922468;28;20113;-87
2022/02/18 23:32:03;;;;;;;16.52;3.13;;;6.20;99.90;;;;;;4942206;28;20050;-88
2022/02/18 23:34:44;;;;;;;19.83;3.33;;;6.30;99.90;;;;;;4947145;28;20050;-88
2022/02/18 23:37:18;;;;;;;15.40;2.38;;;6.20;99.90;;;;;;4919994;28;20078;-88
2022/02/18 23:39:44;;;;;;;17.08;3.00;;;6.20;99.90;;;;;;4949979;28;20193;-90
2022/02/18 23:42:19;;;;;;;15.00;2.10;;;6.20;99.90;;;;;;4933411;28;20050;-89
2022/02/18 23:44:48;;;;;;;22.05;2.70;;;6.20;99.90;;;;;;4932714;28;20054;-89
2022/02/18 23:47:18;;;;;;;12.18;2.40;;;6.20;99.90;;;;;;4950794;28;20038;-92
2022/02/18 23:49:56;;;;;;;17.40;2.70;;;6.20;99.90;;;;;;4935794;28;20549;-89
2022/02/18 23:52:31;;;;;;;15.20;2.60;;;6.20;99.90;;;;;;4949969;28;20126;-90
2022/02/18 23:55:08;;;;;;;18.65;3.33;;;6.20;99.90;;;;;;4932894;28;20544;-89
2022/02/18 23:57:44;;;;;;;14.02;3.17;;;6.20;99.90;;;;;;4949806;28;20138;-88
